createdAt,value
2019-01-28T00:01:44.376Z,98086.23
2019-01-28T00:04:14.095Z,98086.27
2019-01-28T00:06:43.948Z,98088.00
2019-01-28T00:09:13.696Z,98087.91
2019-01-28T00:11:43.439Z,98084.13
2019-01-28T00:14:14.230Z,98092.73
2019-01-28T00:16:44.005Z,98086.22
2019-01-28T00:19:13.706Z,98083.68
2019-01-28T00:21:43.460Z,98082.92
2019-01-28T00:24:13.196Z,98086.34
2019-01-28T00:26:42.935Z,98080.83
2019-01-28T00:29:12.676Z,98091.48
2019-01-28T00:31:42.428Z,98088.49
2019-01-28T00:34:12.188Z,98092.29
2019-01-28T00:36:41.915Z,98094.85
2019-01-28T00:39:11.743Z,98092.38
2019-01-28T00:41:41.517Z,98082.92
2019-01-28T00:44:11.235Z,98083.29
2019-01-28T00:46:40.989Z,98084.62
2019-01-28T00:49:11.795Z,98086.76
2019-01-28T00:51:41.542Z,98078.70
2019-01-28T00:54:11.279Z,98080.36
2019-01-28T00:56:41.018Z,98086.34
2019-01-28T00:59:10.761Z,98090.59
2019-01-28T01:01:40.517Z,98082.11
2019-01-28T01:04:10.349Z,98082.09
2019-01-28T01:06:40.068Z,98084.17
2019-01-28T01:09:09.859Z,98085.89
2019-01-28T01:11:39.590Z,98074.74
2019-01-28T01:14:09.363Z,98075.20
2019-01-28T01:16:39.097Z,98071.85
2019-01-28T01:19:08.840Z,98071.77
2019-01-28T01:21:38.578Z,98065.00
2019-01-28T01:24:08.326Z,98057.81
2019-01-28T01:26:38.069Z,98075.32
2019-01-28T01:29:07.815Z,98067.59
2019-01-28T01:31:37.538Z,98065.45
2019-01-28T01:34:07.273Z,98061.50
2019-01-28T01:36:36.986Z,98072.67
2019-01-28T01:39:07.688Z,98070.48
2019-01-28T01:41:37.428Z,98060.86
2019-01-28T01:44:07.179Z,98067.34
2019-01-28T01:46:36.976Z,98065.56
2019-01-28T01:49:06.745Z,98056.23
2019-01-28T01:51:36.462Z,98054.13
2019-01-28T01:54:06.213Z,98048.14
2019-01-28T01:56:35.940Z,98050.70
2019-01-28T01:59:05.690Z,98036.92
2019-01-28T02:01:35.427Z,98043.28
2019-01-28T02:04:05.182Z,98033.55
2019-01-28T02:06:34.901Z,98036.15
2019-01-28T02:09:07.445Z,98044.77
2019-01-28T02:11:37.290Z,98040.55
2019-01-28T02:14:07.041Z,98037.23
2019-01-28T02:16:36.839Z,98033.44
2019-01-28T02:19:06.591Z,98029.23
2019-01-28T02:21:36.329Z,98015.11
2019-01-28T02:24:06.088Z,98024.07
2019-01-28T02:26:35.818Z,98032.14
2019-01-28T02:29:05.572Z,98013.81
2019-01-28T02:31:35.301Z,98015.08
2019-01-28T02:34:05.113Z,98011.64
2019-01-28T02:36:34.833Z,98007.35
2019-01-28T02:39:06.898Z,98010.78
2019-01-28T02:41:37.798Z,98013.36
2019-01-28T02:44:07.570Z,98010.80
2019-01-28T02:46:37.312Z,98012.52
2019-01-28T02:49:07.034Z,98015.96
2019-01-28T02:51:36.785Z,98013.03
2019-01-28T02:54:06.539Z,98019.03
2019-01-28T02:56:36.265Z,98018.64
2019-01-28T02:59:06.037Z,98008.50
2019-01-28T03:01:35.783Z,97990.59
2019-01-28T03:04:05.594Z,97996.53
2019-01-28T03:06:35.314Z,97990.93
2019-01-28T03:09:07.362Z,97993.03
2019-01-28T03:11:37.100Z,97985.38
2019-01-28T03:14:06.831Z,97980.20
2019-01-28T03:16:36.542Z,97981.87
2019-01-28T03:19:06.285Z,97982.26
2019-01-28T03:21:36.005Z,97975.89
2019-01-28T03:24:05.746Z,97968.97
2019-01-28T03:26:35.824Z,97958.67
2019-01-28T03:29:05.556Z,97966.42
2019-01-28T03:31:35.276Z,97960.05
2019-01-28T03:34:05.012Z,97968.02
2019-01-28T03:36:34.806Z,97958.73
2019-01-28T03:39:07.449Z,97960.80
2019-01-28T03:41:37.166Z,97962.16
2019-01-28T03:44:06.906Z,97954.06
2019-01-28T03:46:36.614Z,97958.23
2019-01-28T03:49:06.373Z,97951.51
2019-01-28T03:51:36.294Z,97955.39
2019-01-28T03:54:06.022Z,97950.66
2019-01-28T03:56:35.731Z,97947.76
2019-01-28T03:59:05.477Z,97960.55
2019-01-28T04:01:35.188Z,97954.66
2019-01-28T04:04:04.936Z,97943.14
2019-01-28T04:06:34.810Z,97954.66
2019-01-28T04:09:07.540Z,97954.73
2019-01-28T04:11:37.365Z,97952.27
2019-01-28T04:14:07.087Z,97953.99
2019-01-28T04:16:36.825Z,97942.20
2019-01-28T04:19:06.567Z,97945.61
2019-01-28T04:21:36.278Z,97938.39
2019-01-28T04:24:06.016Z,97943.22
2019-01-28T04:26:35.740Z,97943.29
2019-01-28T04:29:05.483Z,97935.66
2019-01-28T04:31:35.191Z,97939.08
2019-01-28T04:34:04.942Z,97945.06
2019-01-28T04:36:34.646Z,97951.56
2019-01-28T04:39:06.716Z,97925.63
2019-01-28T04:41:36.431Z,97932.88
2019-01-28T04:44:06.471Z,97917.97
2019-01-28T04:46:36.184Z,97922.69
2019-01-28T04:49:05.915Z,97936.34
2019-01-28T04:51:35.635Z,97928.18
2019-01-28T04:54:05.355Z,97924.80
2019-01-28T04:56:35.167Z,97918.94
2019-01-28T04:59:04.899Z,97935.12
2019-01-28T05:01:34.711Z,97923.36
2019-01-28T05:04:04.440Z,97918.23
2019-01-28T05:06:34.173Z,97932.76
2019-01-28T05:09:07.082Z,97925.98
2019-01-28T05:11:36.831Z,97933.59
2019-01-28T05:14:06.567Z,97929.36
2019-01-28T05:16:36.334Z,97924.17
2019-01-28T05:19:06.051Z,97922.53
2019-01-28T05:21:35.785Z,97918.70
2019-01-28T05:24:05.536Z,97931.10
2019-01-28T05:26:35.391Z,97924.67
2019-01-28T05:29:05.124Z,97914.96
2019-01-28T05:31:35.015Z,97917.09
2019-01-28T05:34:04.745Z,97913.25
2019-01-28T05:36:34.498Z,97915.36
2019-01-28T05:39:05.876Z,97915.80
2019-01-28T05:41:35.642Z,97915.46
2019-01-28T05:44:05.538Z,97909.48
2019-01-28T05:46:35.283Z,97903.98
2019-01-28T05:49:05.004Z,97902.38
2019-01-28T05:51:34.759Z,97898.98
2019-01-28T05:54:04.491Z,97899.00
2019-01-28T05:56:34.272Z,97904.20
2019-01-28T05:59:03.986Z,97901.48
2019-01-28T06:01:33.788Z,97906.20
2019-01-28T06:04:03.536Z,97911.38
2019-01-28T06:06:34.046Z,97909.28
2019-01-28T06:09:05.408Z,97899.05
2019-01-28T06:11:35.143Z,97914.32
2019-01-28T06:14:04.949Z,97901.65
2019-01-28T06:16:34.687Z,97900.95
2019-01-28T06:19:04.432Z,97902.52
2019-01-28T06:21:34.183Z,97908.86
2019-01-28T06:24:03.910Z,97913.14
2019-01-28T06:26:33.635Z,97908.52
2019-01-28T06:29:03.375Z,97898.68
2019-01-28T06:31:33.107Z,97905.08
2019-01-28T06:34:02.854Z,97911.07
2019-01-28T06:36:32.620Z,97917.86
2019-01-28T06:39:02.419Z,97913.11
2019-01-28T06:41:32.165Z,97904.20
2019-01-28T06:44:01.970Z,97916.14
2019-01-28T06:46:31.788Z,97910.59
2019-01-28T06:49:01.513Z,97910.69
2019-01-28T06:51:31.260Z,97913.66
2019-01-28T06:54:00.981Z,97921.33
2019-01-28T06:56:30.720Z,97926.08
2019-01-28T06:59:00.500Z,97928.09
2019-01-28T07:01:30.284Z,97916.62
2019-01-28T07:04:00.017Z,97921.27
2019-01-28T07:06:29.780Z,97927.19
2019-01-28T07:08:59.518Z,97923.36
2019-01-28T07:11:29.276Z,97917.80
2019-01-28T07:13:58.984Z,97916.99
2019-01-28T07:16:28.748Z,97921.64
2019-01-28T07:18:58.556Z,97921.13
2019-01-28T07:21:28.320Z,97927.52
2019-01-28T07:23:58.029Z,97936.52
2019-01-28T07:26:27.771Z,97925.47
2019-01-28T07:28:57.865Z,97938.28
2019-01-28T07:31:27.644Z,97933.99
2019-01-28T07:33:57.379Z,97954.41
2019-01-28T07:36:27.130Z,97943.35
2019-01-28T07:38:56.866Z,97946.66
2019-01-28T07:41:26.614Z,97950.50
2019-01-28T07:43:56.367Z,97947.02
2019-01-28T07:46:26.105Z,97952.98
2019-01-28T07:48:55.831Z,97954.23
2019-01-28T07:51:25.584Z,97955.96
2019-01-28T07:53:55.354Z,97952.56
2019-01-28T07:56:25.120Z,97960.19
2019-01-28T07:58:54.876Z,97960.17
2019-01-28T08:01:24.619Z,97963.08
2019-01-28T08:03:54.359Z,97964.85
2019-01-28T08:06:24.138Z,97961.75
2019-01-28T08:08:53.870Z,97970.31
2019-01-28T08:11:23.621Z,97976.37
2019-01-28T08:13:53.347Z,97984.77
2019-01-28T08:16:23.090Z,97980.50
2019-01-28T08:18:52.817Z,97977.06
2019-01-28T08:21:22.663Z,97978.73
2019-01-28T08:23:52.386Z,97985.52
2019-01-28T08:26:22.138Z,97982.45
2019-01-28T08:28:51.889Z,97983.73
2019-01-28T08:31:21.661Z,97984.65
2019-01-28T08:33:51.455Z,97987.91
2019-01-28T08:36:21.236Z,97985.33
2019-01-28T08:38:50.962Z,97991.28
2019-01-28T08:41:20.724Z,97991.34
2019-01-28T08:43:50.464Z,97987.91
2019-01-28T08:46:20.201Z,97987.09
2019-01-28T08:48:49.945Z,97987.10
2019-01-28T08:51:19.691Z,97990.50
2019-01-28T08:53:49.420Z,97998.16
2019-01-28T08:56:19.164Z,97998.16
2019-01-28T08:58:48.898Z,97993.86
2019-01-28T09:01:18.651Z,97997.31
2019-01-28T09:03:48.379Z,98009.77
2019-01-28T09:06:18.206Z,97994.38
2019-01-28T09:08:47.963Z,98008.52
2019-01-28T09:11:17.711Z,98011.27
2019-01-28T09:13:47.453Z,98013.52
2019-01-28T09:16:17.204Z,98009.67
2019-01-28T09:18:46.938Z,98016.43
2019-01-28T09:21:16.693Z,98013.00
2019-01-28T09:23:46.502Z,98018.95
2019-01-28T09:26:16.275Z,98014.19
2019-01-28T09:28:46.021Z,98023.55
2019-01-28T09:31:15.782Z,98023.92
2019-01-28T09:33:45.514Z,98026.45
2019-01-28T09:36:15.269Z,98020.31
2019-01-28T09:38:45.073Z,98024.55
2019-01-28T09:41:14.857Z,98030.51
2019-01-28T09:43:44.614Z,98030.03
2019-01-28T09:46:14.397Z,98029.86
2019-01-28T09:48:44.135Z,98030.12
2019-01-28T09:51:13.898Z,98035.20
2019-01-28T09:53:43.636Z,98038.22
2019-01-28T09:56:13.619Z,98042.09
2019-01-28T09:58:43.343Z,98045.37
2019-01-28T10:01:13.108Z,98051.20
2019-01-28T10:03:42.822Z,98048.57
2019-01-28T10:06:12.559Z,98053.19
2019-01-28T10:08:42.303Z,98056.96
2019-01-28T10:35:29.623Z,98112.61
2019-01-28T10:38:01.379Z,98114.55
2019-01-28T10:40:35.637Z,98102.52
2019-01-28T10:43:06.125Z,98114.63
2019-01-28T10:45:37.506Z,98111.89
2019-01-28T10:48:09.100Z,98119.57
2019-01-28T10:50:39.564Z,98126.19
2019-01-28T10:53:09.300Z,98129.89
2019-01-28T10:55:39.042Z,98129.17
2019-01-28T10:58:08.800Z,98135.71
2019-01-28T11:00:44.215Z,98138.38
2019-01-28T11:03:15.708Z,98145.06
2019-01-28T11:05:45.446Z,98150.72
2019-01-28T11:08:15.185Z,98152.12
2019-01-28T11:10:45.022Z,98155.91
2019-01-28T11:13:14.739Z,98163.31
2019-01-28T11:15:44.489Z,98162.79
2019-01-28T11:18:17.393Z,98167.59
2019-01-28T11:20:47.291Z,98172.18
2019-01-28T11:23:17.137Z,98173.49
2019-01-28T11:25:46.833Z,98174.80
2019-01-28T11:28:16.645Z,98176.98
2019-01-28T11:30:51.243Z,98180.04
2019-01-28T11:33:21.093Z,98189.22
2019-01-28T11:35:50.940Z,98192.70
2019-01-28T11:38:21.162Z,98198.17
2019-01-28T11:40:50.853Z,98203.92
2019-01-28T11:43:20.602Z,98200.86
2019-01-28T11:45:53.593Z,98207.84
2019-01-28T11:48:23.493Z,98219.23
2019-01-28T11:50:56.050Z,98219.98
2019-01-28T11:53:24.677Z,98225.03
2019-01-28T11:55:54.465Z,98236.22
2019-01-28T11:58:24.223Z,98241.55
2019-01-28T12:01:01.105Z,98239.61
2019-01-28T12:03:30.833Z,98250.84
2019-01-28T12:06:00.666Z,98256.41
2019-01-28T12:08:30.463Z,98263.08
2019-01-28T12:11:00.217Z,98266.95
2019-01-28T12:13:29.971Z,98269.52
2019-01-28T12:15:59.750Z,98281.08
2019-01-28T12:18:30.906Z,98286.35
2019-01-28T12:21:00.667Z,98295.23
2019-01-28T12:23:34.536Z,98293.59
2019-01-28T12:26:01.869Z,98308.06
2019-01-28T12:28:31.603Z,98304.39
2019-01-28T12:31:01.333Z,98307.45
2019-01-28T12:33:31.080Z,98312.53
2019-01-28T12:36:00.922Z,98319.86
2019-01-28T12:38:30.689Z,98325.64
2019-01-28T12:41:00.406Z,98338.55
2019-01-28T12:43:30.279Z,98342.02
2019-01-28T12:46:00.021Z,98345.78
2019-01-28T12:48:29.798Z,98354.34
2019-01-28T12:50:59.510Z,98355.55
2019-01-28T12:53:29.254Z,98366.07
2019-01-28T12:55:58.964Z,98365.63
2019-01-28T12:58:28.717Z,98370.35
2019-01-28T13:01:00.192Z,98381.45
2019-01-28T13:03:29.933Z,98384.19
2019-01-28T13:05:59.739Z,98383.57
2019-01-28T13:08:29.461Z,98383.51
2019-01-28T13:10:59.192Z,98380.94
2019-01-28T13:13:28.926Z,98385.94
2019-01-28T13:15:58.662Z,98382.95
2019-01-28T13:18:28.411Z,98396.98
2019-01-28T13:20:58.226Z,98396.78
2019-01-28T13:23:27.974Z,98398.00
2019-01-28T13:25:57.721Z,98411.36
2019-01-28T13:28:27.484Z,98411.09
2019-01-28T13:30:57.256Z,98417.80
2019-01-28T13:33:26.993Z,98414.13
2019-01-28T13:35:56.769Z,98425.03
2019-01-28T13:38:26.576Z,98434.37
2019-01-28T13:40:56.330Z,98437.60
2019-01-28T13:43:26.061Z,98441.41
2019-01-28T13:45:55.839Z,98446.50
2019-01-28T13:48:25.867Z,98442.48
2019-01-28T13:50:55.624Z,98448.41
2019-01-28T13:53:25.366Z,98457.44
2019-01-28T13:55:55.148Z,98463.14
2019-01-28T13:58:24.900Z,98467.50
2019-01-28T14:00:54.734Z,98469.95
2019-01-28T14:03:24.473Z,98470.27
2019-01-28T14:05:54.252Z,98484.81
2019-01-28T14:08:24.016Z,98493.84
2019-01-28T14:10:53.792Z,98498.11
2019-01-28T14:13:23.545Z,98499.13
2019-01-28T14:15:53.327Z,98504.72
2019-01-28T14:18:23.040Z,98506.38
2019-01-28T14:20:53.659Z,98519.69
2019-01-28T14:23:24.373Z,98529.16
2019-01-28T14:25:54.262Z,98535.00
2019-01-28T14:28:23.994Z,98537.94
2019-01-28T14:30:53.771Z,98549.90
2019-01-28T14:33:23.515Z,98555.95
2019-01-28T14:35:53.259Z,98560.75
2019-01-28T14:38:23.093Z,98573.08
2019-01-28T14:40:52.858Z,98584.63
2019-01-28T14:43:22.604Z,98588.46
2019-01-28T14:45:52.339Z,98600.00
2019-01-28T14:48:22.206Z,98599.56
2019-01-28T14:50:51.983Z,98605.27
2019-01-28T14:53:22.772Z,98610.83
2019-01-28T14:55:52.512Z,98621.52
2019-01-28T14:58:22.257Z,98627.16
2019-01-28T15:00:52.011Z,98631.44
2019-01-28T15:03:21.737Z,98643.43
2019-01-28T15:05:51.500Z,98648.22
2019-01-28T15:08:21.216Z,98657.17
2019-01-28T15:10:50.984Z,98662.73
2019-01-28T15:13:20.771Z,98670.00
2019-01-28T15:15:50.530Z,98677.69
2019-01-28T15:18:20.246Z,98678.53
2019-01-28T15:20:50.017Z,98682.80
2019-01-28T15:23:19.740Z,98691.77
2019-01-28T15:25:49.500Z,98701.98
2019-01-28T15:28:19.217Z,98709.28
2019-01-28T15:30:49.059Z,98717.82
2019-01-28T15:33:18.841Z,98716.95
2019-01-28T15:35:48.720Z,98721.23
2019-01-28T15:38:18.481Z,98734.94
2019-01-28T15:40:48.294Z,98740.91
2019-01-28T15:43:18.027Z,98748.98
2019-01-28T15:45:47.791Z,98754.99
2019-01-28T15:48:17.556Z,98764.77
2019-01-28T15:50:47.830Z,98777.69
2019-01-28T15:53:18.040Z,98784.47
2019-01-28T15:55:48.205Z,98790.50
2019-01-28T15:58:17.908Z,98792.20
2019-01-28T16:00:47.738Z,98807.13
2019-01-28T16:03:17.587Z,98812.68
2019-01-28T16:05:47.783Z,98818.66
2019-01-28T16:08:17.832Z,98829.75
2019-01-28T16:10:48.502Z,98835.30
2019-01-28T16:13:18.443Z,98836.16
2019-01-28T16:15:48.886Z,98846.01
2019-01-28T16:18:18.631Z,98849.84
2019-01-28T16:20:48.413Z,98858.80
2019-01-28T16:23:18.222Z,98861.36
2019-01-28T16:25:47.982Z,98873.31
2019-01-28T16:28:17.735Z,98878.00
2019-01-28T16:30:48.565Z,98882.72
2019-01-28T16:33:18.305Z,98889.54
2019-01-28T16:35:48.154Z,98898.91
2019-01-28T16:38:17.898Z,98908.72
2019-01-28T16:40:47.706Z,98910.84
2019-01-28T16:43:17.476Z,98921.95
2019-01-28T16:45:47.199Z,98925.36
2019-01-28T16:48:18.689Z,98926.64
2019-01-28T16:50:48.466Z,98938.15
2019-01-28T16:53:18.242Z,98944.97
2019-01-28T16:55:47.977Z,98950.95
2019-01-28T16:58:17.748Z,98954.34
2019-01-28T17:00:47.481Z,98958.61
2019-01-28T17:03:17.238Z,98967.98
2019-01-28T17:05:46.967Z,98964.14
2019-01-28T17:08:16.722Z,98976.52
2019-01-28T17:10:46.422Z,98985.45
2019-01-28T17:13:16.224Z,98987.59
2019-01-28T17:15:45.948Z,98994.00
2019-01-28T17:18:16.082Z,99002.94
2019-01-28T17:20:45.976Z,99002.51
2019-01-28T17:23:15.718Z,99002.50
2019-01-28T17:25:46.829Z,99015.72
2019-01-28T17:28:16.602Z,99019.98
2019-01-28T17:30:48.332Z,99031.92
2019-01-28T17:33:18.089Z,99030.64
2019-01-28T17:35:47.807Z,99045.55
2019-01-28T17:38:17.558Z,99051.97
2019-01-28T17:40:47.338Z,99059.63
2019-01-28T17:43:17.098Z,99060.05
2019-01-28T17:45:46.844Z,99068.60
2019-01-28T17:48:17.732Z,99071.61
2019-01-28T17:50:47.505Z,99074.56
2019-01-28T17:53:17.291Z,99080.97
2019-01-28T17:55:47.054Z,99089.05
2019-01-28T17:58:16.785Z,99090.34
2019-01-28T18:00:50.896Z,99096.72
2019-01-28T18:03:20.642Z,99103.52
2019-01-28T18:05:50.381Z,99100.50
2019-01-28T18:08:20.161Z,99109.45
2019-01-28T18:10:49.876Z,99116.27
2019-01-28T18:13:20.647Z,99127.38
2019-01-28T18:15:50.383Z,99131.63
2019-01-28T18:18:20.135Z,99138.38
2019-01-28T18:20:52.022Z,99141.38
2019-01-28T18:23:22.975Z,99141.39
2019-01-28T18:25:52.706Z,99154.61
2019-01-28T18:28:22.463Z,99156.34
2019-01-28T18:30:52.166Z,99165.69
2019-01-28T18:33:21.925Z,99163.94
2019-01-28T18:35:51.889Z,99175.43
2019-01-28T18:38:21.661Z,99174.56
2019-01-28T18:40:51.372Z,99180.14
2019-01-28T18:43:21.205Z,99182.65
2019-01-28T18:45:50.924Z,99190.30
2019-01-28T18:48:20.681Z,99193.73
2019-01-28T18:50:50.391Z,99196.34
2019-01-28T18:53:20.198Z,99193.33
2019-01-28T18:55:49.932Z,99198.48
2019-01-28T18:58:19.708Z,99207.85
2019-01-28T19:00:49.446Z,99213.80
2019-01-28T19:03:19.276Z,99221.02
2019-01-28T19:05:53.207Z,99227.84
2019-01-28T19:08:40.822Z,99237.25
2019-01-28T19:11:23.985Z,99238.89
2019-01-28T19:13:57.978Z,99244.84
2019-01-28T19:16:47.111Z,99250.39
2019-01-28T19:19:19.607Z,99254.19
2019-01-28T19:21:53.626Z,99263.09
2019-01-28T19:24:23.391Z,99271.16
2019-01-28T19:26:53.122Z,99282.16
2019-01-28T19:29:23.800Z,99283.87
2019-01-28T19:31:53.668Z,99289.86
2019-01-28T19:34:23.401Z,99294.02
2019-01-28T19:36:53.145Z,99294.84
2019-01-28T19:39:22.911Z,99295.64
2019-01-28T19:41:52.652Z,99307.20
2019-01-28T19:44:22.428Z,99308.08
2019-01-28T19:46:52.172Z,99305.89
2019-01-28T19:49:21.908Z,99322.87
2019-01-28T19:51:51.655Z,99324.54
2019-01-28T19:54:21.430Z,99330.13
2019-01-28T19:56:51.262Z,99328.41
2019-01-28T19:59:21.089Z,99337.76
2019-01-28T20:01:50.812Z,99336.48
2019-01-28T20:04:20.558Z,99343.27
2019-01-28T20:06:50.282Z,99347.66
2019-01-28T20:09:20.038Z,99349.77
2019-01-28T20:11:49.770Z,99347.58
2019-01-28T20:14:19.600Z,99351.89
2019-01-28T20:16:49.307Z,99358.36
2019-01-28T20:19:19.085Z,99359.55
2019-01-28T20:21:49.351Z,99362.11
2019-01-28T20:24:19.116Z,99369.88
2019-01-28T20:26:49.030Z,99373.69
2019-01-28T20:29:18.799Z,99371.57
2019-01-28T20:31:48.510Z,99371.56
2019-01-28T20:34:18.266Z,99374.13
2019-01-28T20:39:40.924Z,99387.02
2019-01-28T20:42:10.657Z,99389.50
2019-01-28T20:44:40.461Z,99394.66
2019-01-28T20:47:10.239Z,99398.96
2019-01-28T20:49:40.041Z,99405.41
2019-01-28T20:52:09.800Z,99409.74
2019-01-28T20:54:39.549Z,99415.20
2019-01-28T20:57:09.345Z,99421.92
2019-01-28T20:59:39.143Z,99424.41
2019-01-28T21:02:08.868Z,99420.88
2019-01-28T21:04:38.599Z,99425.06
2019-01-28T21:07:08.382Z,99427.24
2019-01-28T21:09:38.161Z,99434.52
2019-01-28T21:12:08.089Z,99440.00
2019-01-28T21:14:37.842Z,99436.96
2019-01-28T21:17:07.630Z,99439.94
2019-01-28T21:19:37.378Z,99441.58
2019-01-28T21:22:07.155Z,99447.47
2019-01-28T21:24:36.937Z,99444.44
2019-01-28T21:27:06.706Z,99441.97
2019-01-28T21:29:36.429Z,99457.20
2019-01-28T21:32:06.196Z,99459.31
2019-01-28T21:34:35.924Z,99458.58
2019-01-28T21:37:08.542Z,99463.24
2019-01-28T21:39:38.326Z,99469.19
2019-01-28T21:42:08.080Z,99467.41
2019-01-28T21:44:37.803Z,99468.77
2019-01-28T21:47:07.958Z,99467.05
2019-01-28T21:49:37.857Z,99469.98
2019-01-28T21:52:07.654Z,99468.20
2019-01-28T21:54:37.374Z,99473.20
2019-01-28T21:57:07.214Z,99478.71
2019-01-28T21:59:36.999Z,99479.62
2019-01-28T22:02:06.769Z,99487.70
2019-01-28T22:04:36.502Z,99488.66
2019-01-28T22:07:06.260Z,99492.52
2019-01-28T22:09:35.981Z,99491.58
2019-01-28T22:12:05.722Z,99495.12
2019-01-28T22:14:35.439Z,99498.09
2019-01-28T22:17:05.212Z,99499.05
2019-01-28T22:19:34.987Z,99505.88
2019-01-28T22:22:04.716Z,99504.66
2019-01-28T22:24:34.606Z,99511.04
2019-01-28T22:27:04.586Z,99513.62
2019-01-28T22:29:34.404Z,99518.68
2019-01-28T22:32:04.152Z,99518.27
2019-01-28T22:34:33.875Z,99522.88
2019-01-28T22:37:03.625Z,99522.83
2019-01-28T22:39:33.342Z,99522.88
2019-01-28T22:42:03.090Z,99523.67
2019-01-28T22:44:32.803Z,99528.78
2019-01-28T22:47:02.569Z,99533.22
2019-01-28T22:49:32.324Z,99535.79
2019-01-28T22:52:07.732Z,99543.42
2019-01-28T22:54:33.526Z,99547.56
2019-01-28T22:57:03.282Z,99555.99
2019-01-28T22:59:33.016Z,99554.38
2019-01-28T23:02:02.740Z,99554.42
2019-01-28T23:04:32.478Z,99555.65
2019-01-28T23:07:03.285Z,99561.63
2019-01-28T23:09:33.119Z,99563.66
2019-01-28T23:12:02.857Z,99560.37
2019-01-28T23:14:33.617Z,99560.86
2019-01-28T23:17:04.445Z,99571.37
2019-01-28T23:19:34.204Z,99575.33
2019-01-28T23:22:03.976Z,99571.42
2019-01-28T23:24:33.693Z,99579.92
2019-01-28T23:27:03.429Z,99575.59
2019-01-28T23:29:33.211Z,99580.70
2019-01-28T23:32:02.954Z,99578.12
2019-01-28T23:34:32.697Z,99581.44
2019-01-28T23:37:02.415Z,99588.30
2019-01-28T23:39:32.180Z,99584.45
2019-01-28T23:42:01.930Z,99587.92
2019-01-28T23:44:31.701Z,99588.36
2019-01-28T23:47:01.411Z,99588.02
2019-01-28T23:49:31.166Z,99593.23
2019-01-28T23:52:00.918Z,99595.42
2019-01-28T23:54:30.647Z,99599.59
2019-01-28T23:57:00.396Z,99603.03
2019-01-28T23:59:30.120Z,99595.05
